Terminal Aerodrome Forecast
Issued by NWS

Home | Current Version | Previous Version | Text Only | Print | Product List | Glossary On
Versions: 1 2 3 4 5 6 7 8 9 10 11 12 13 14 15 16 17
000
FTUS45 KABQ 190400 AAA
TAFTCC
TAF AMD
KTCC 190411Z 1904/1924 09005KT P6SM VCFG BKN015 OVC025
      TEMPO 1904/1905 6SM BR SCT004 SCT015
     FM190500 09005KT P6SM VCFG SCT004 OVC025
     FM191900 12010KT P6SM VCSH SCT015 OVC040=

USA.gov is the U.S. government's official web portal to all federal, state and local government web resources and services.